»·PEaware :: N5724J KMRY-KOAK

N5724J :: KMRY-KOAK

FLIGHT INFORMATION

Flight Status: Arrived
Operator: Privately registered:
United States
More flights under this callsign
Pilot: Anonymous 14019 (14019)
Aircraft: BEECH AIRCRAFT BONANZA
(BE35)
More flights by this aircraft type
Origin: KMRY Monterey Peninsula
United States
Destination: KOAK Metro Oakland Intl
United States
More flights between these airports :: More routes between these airports
Route: +MRY5 SNS V111 KARNN V301 SUNOL
File this flight plan on PilotEdge
Remarks:
Altitude:
(Current/Filed)
7,000ft
Speed:
(Current/Filed)
170kts
Departed: 24-Aug-20 01:33 PM
Arrived: 24-Aug-20 02:20 PM
Distance/Time
Traveled:
71nm/0:47
Distance/Time
To Go:
Arrived

Flight Plot

Page will automatically refresh every two minutes.

Flight plan parsing failed; only flown route is shown


Map Options




Map Legend


Flown Route
Filed Route
Departure Airport
Arrival Airport
Navaid (VOR, NDB)
Fix

Horizontal Profiles

Position Reports

Time Latitude Longitude Heading Altitude Ground
Speed
24-Aug-20 13:05 36.591940 -121.848845 164 208ft 0kts
24-Aug-20 13:06 36.591940 -121.848845 164 208ft 0kts
24-Aug-20 13:07 36.591940 -121.848845 164 208ft 0kts
24-Aug-20 13:08 36.591940 -121.848845 164 208ft 0kts
24-Aug-20 13:09 36.591939 -121.848844 164 208ft 0kts
24-Aug-20 13:10 36.591938 -121.848844 164 208ft 0kts
24-Aug-20 13:11 36.591937 -121.848844 164 208ft 0kts
24-Aug-20 13:12 36.591936 -121.848844 164 208ft 0kts
24-Aug-20 13:13 36.591935 -121.848843 164 208ft 0kts
24-Aug-20 13:14 36.591934 -121.848843 164 208ft 0kts
24-Aug-20 13:15 36.591933 -121.848842 164 208ft 0kts
24-Aug-20 13:16 36.591931 -121.848842 164 208ft 0kts
24-Aug-20 13:17 36.591930 -121.848841 164 208ft 0kts
24-Aug-20 13:18 36.591929 -121.848841 164 208ft 0kts
24-Aug-20 13:19 36.591927 -121.848841 164 208ft 0kts
24-Aug-20 13:20 36.591629 -121.848769 166 208ft 1kts
24-Aug-20 13:21 36.591391 -121.850078 255 208ft 0kts
24-Aug-20 13:22 36.590955 -121.850992 159 208ft 5kts
24-Aug-20 13:23 36.588181 -121.850306 118 208ft 10kts
24-Aug-20 13:24 36.586493 -121.845782 115 208ft 16kts
24-Aug-20 13:25 36.584881 -121.841011 113 208ft 15kts
24-Aug-20 13:26 36.583683 -121.837480 111 208ft 10kts
24-Aug-20 13:27 36.582853 -121.834748 92 208ft 0kts
24-Aug-20 13:28 36.582853 -121.834739 92 208ft 0kts
24-Aug-20 13:29 36.582852 -121.834732 92 208ft 0kts
24-Aug-20 13:30 36.582852 -121.834731 92 208ft 0kts
24-Aug-20 13:31 36.582876 -121.833819 79 208ft 10kts
24-Aug-20 13:32 36.586508 -121.843120 295 374ft 87kts
24-Aug-20 13:33 36.603051 -121.869575 348 1789ft 101kts
24-Aug-20 13:34 36.632461 -121.877044 344 2836ft 111kts
24-Aug-20 13:35 36.661614 -121.889471 341 3922ft 112kts
24-Aug-20 13:36 36.691905 -121.901009 345 4991ft 115kts
24-Aug-20 13:37 36.709812 -121.931820 280 5951ft 127kts
24-Aug-20 13:38 36.717801 -121.973305 287 6876ft 124kts
24-Aug-20 13:39 36.731137 -121.980788 62 7912ft 107kts
24-Aug-20 13:40 36.744739 -121.936493 63 7867ft 155kts
24-Aug-20 13:41 36.760755 -121.884773 63 7866ft 162kts
24-Aug-20 13:42 36.787585 -121.841302 42 7861ft 161kts
24-Aug-20 13:43 36.817026 -121.799000 46 8000ft 162kts
24-Aug-20 13:44 36.846016 -121.754660 46 8000ft 166kts
24-Aug-20 13:45 36.875829 -121.708563 47 7997ft 178kts
24-Aug-20 13:46 36.905855 -121.661955 46 7990ft 168kts
24-Aug-20 13:47 36.931685 -121.612828 64 7987ft 167kts
24-Aug-20 13:48 36.958788 -121.575668 41 7993ft 164kts
24-Aug-20 13:49 36.987704 -121.534329 46 7996ft 178kts
24-Aug-20 13:50 37.017840 -121.487790 46 7993ft 168kts
24-Aug-20 13:51 37.047017 -121.442347 46 7993ft 166kts
24-Aug-20 13:52 37.075962 -121.397201 47 7997ft 166kts
24-Aug-20 13:53 37.104313 -121.352824 47 8192ft 163kts
24-Aug-20 13:54 37.133026 -121.307806 47 8202ft 166kts
24-Aug-20 13:55 37.166914 -121.279104 329 8205ft 159kts
24-Aug-20 13:56 37.191501 -121.326483 308 8200ft 163kts
24-Aug-20 13:57 37.220323 -121.370099 316 8202ft 162kts
24-Aug-20 13:58 37.251756 -121.410379 318 8198ft 162kts
24-Aug-20 13:59 37.284061 -121.451046 319 8202ft 167kts
24-Aug-20 14:00 37.317971 -121.489507 330 8203ft 161kts
24-Aug-20 14:01 37.358510 -121.515512 333 8043ft 172kts
24-Aug-20 14:02 37.402442 -121.543181 337 7301ft 176kts
24-Aug-20 14:03 37.446015 -121.570222 333 6617ft 173kts
24-Aug-20 14:04 37.487936 -121.596199 334 6209ft 156kts
24-Aug-20 14:05 37.525901 -121.620178 335 6201ft 152kts
24-Aug-20 14:06 37.559651 -121.653625 314 5832ft 170kts
24-Aug-20 14:07 37.590199 -121.697844 315 5217ft 157kts
24-Aug-20 14:08 37.606752 -121.743933 277 5204ft 153kts
24-Aug-20 14:09 37.606788 -121.797535 274 5210ft 155kts
24-Aug-20 14:10 37.609431 -121.852552 295 5210ft 157kts
24-Aug-20 14:11 37.625716 -121.904930 296 4912ft 158kts
24-Aug-20 14:12 37.641648 -121.953042 298 4135ft 149kts
24-Aug-20 14:13 37.658041 -122.001894 297 3358ft 149kts
24-Aug-20 14:14 37.674031 -122.048702 296 2603ft 140kts
24-Aug-20 14:15 37.689597 -122.094769 295 1835ft 145kts
24-Aug-20 14:17 37.703092 -122.136439 295 1086ft 109kts
24-Aug-20 14:18 37.713184 -122.168912 295 614ft 83kts
24-Aug-20 14:19 37.721795 -122.195571 292 204ft 77kts
24-Aug-20 14:20 37.727517 -122.212716 343 9ft 0kts
24-Aug-20 14:21 37.729255 -122.212883 338 9ft 11kts

Navigation Log

Ident Type
Flight plan parsing failed, navigation log unavailable